Terminal Aerodrome Forecast
Issued by NWS

Home | Current Version | Previous Version | Text Only | Print | Product List | Glossary On
Versions: 1 2 3 4 5 6 7 8 9 10 11 12 13 14 15 16 17 18
370
FTUS42 KGSP 272003 AAA
TAFAND
TAF AMD
KAND 272003Z 2720/2818 22010KT P6SM VCTS SCT040CB BKN200
      TEMPO 2720/2723 32010G25KT 3SM TSRA BKN025CB
     FM280000 24003KT P6SM VCSH BKN045
     FM280700 VRB02KT 5SM BR SCT080
     FM281200 VRB02KT P6SM SCT060
     FM281600 24006KT P6SM FEW050=

USA.gov is the U.S. government's official web portal to all federal, state and local government web resources and services.